Sonora Municipal Airport
KSOA : now visible

Airfield :











YOU CAN JOIN US ON...

 
LOGIN :

Register | Disclaimer

   EN    FR    IT 

 









Legend :    VFR   Marginal VFR   IFR   Intensive IFR   Very Intensive IFR
Visi :
Ceiling :
>= 8 km
>= 3000ft
5 to 8 km
1000 to 3000 ft
1500m to 5 km
500 to 1000 ft
800 to 1500m
200 to 500 ft
< 800m
< 200 ft
Symbols :   Thunderstorms  Fog  Heavy snow  Heavy precipitations  Wind > 20 kt






- Airport Elevation : 2140 ft


KSOA - Sonora Municipal

CURRENT METAR :
  • 151035Z AUTO 00000KT 10SM CLR 03/01 A2979 RMK AO2

EXPIRED METARs :
  • 151015Z AUTO 00000KT 10SM CLR 03/01 A2978 RMK AO2
  • 150955Z AUTO 00000KT 10SM CLR 03/01 A2979 RMK AO2
  • 150935Z AUTO 00000KT 10SM CLR 04/01 A2979 RMK AO2
  • 150915Z AUTO 00000KT 10SM CLR 04/01 A2978 RMK AO2
  • 150855Z AUTO 00000KT 10SM CLR 04/01 A2979 RMK AO2
  • 150835Z AUTO 00000KT 10SM CLR 04/01 A2979 RMK AO2
  • 150815Z AUTO 00000KT 10SM CLR 04/01 A2979 RMK AO2
  • 150755Z AUTO 00000KT 10SM CLR 04/01 A2979 RMK AO2

TAF KSOA
Valid from the 15 at 06:00 until the 16 at 06:00 UTC


150520Z 1506/1606 VRB04KT P6SM SKC
FM160400 09005KT P6SM FEW250



MET'MAP, your aeronautical weather chart ! - Copyright ORBIFLY December 2007 - Disclaimer

ORBIFLY MET'MAP TEAM :

Programming & Development : Alexandra Zaïnal
Concept & original design : Baudouin d'Aumeries
Assistance for programming : Marc-Olivier Méhu
Technical & hardware support : Manuel Goepfert

Contact : metmap@orbifly.com




SOURCES & CREDITS :

   NOAA       Earth
Advisory